Saint Charles, MO

7:28 AM CDT on August 21, 2014 (GMT -0500)
Lindenwood | Change Station
CLOSE
Current Station
Personal Weather Station
Location: St. Charles, MO
Elevation: 528 ft
Nearby Weather Stations
Active Advisory: Heat Advisory Active Notice: Local Storm Report

Elev 528 ft 38.79 °N, 90.50 °W | Updated 30 seconds ago

Partly Cloudy
Partly Cloudy
71.7 °F
Feels Like 71.7 °F
N
0.0
Wind Variable Wind from WSW
Gusts 0.0 mph

Today
High -- | Low -- °F
--% Chance of Precip.
Yesterday
High -- | Low -- °F
Precip. -- in
6:21 AM 7:48 PM
Waning Crescent, 14% visible
Pressure 29.95 in
Visibility 7.0 miles
Clouds Few 800 ft
Dew Point 70 °F
Humidity 94%
Rainfall 0.00 in
Snow Depth Not available.
UV 0 out of 12
Pollen 11.00 out of 12
Air Quality Not available.
Flu Activity Not available.
METAR KSET 211154Z AUTO 00000KT 7SM FEW008 20/20 A2996 RMK AO1 SLP140 T02000200 10222 20194 53001

More Conditions Fewer Conditions

Pressure 29.95 in
Visibility 7.0 miles
Clouds Few 800 ft
Dew Point 70 °F
Humidity 94%
Rainfall 0.00 in
Snow Depth Not available.
UV 0 out of 12
Pollen 11.00 out of 12
Air Quality Not available.
Flu Activity Not available.
METAR KSET 211154Z AUTO 00000KT 7SM FEW008 20/20 A2996 RMK AO1 SLP140 T02000200 10222 20194 53001

More Conditions Fewer Conditions

10-Day Weather Forecast

Almanac

Astronomy

Aug. 21, 2014 Rise Set
Actual Time 6:21 AM CDT 7:48 PM CDT
Civil Twilight 5:53 AM CDT 8:16 PM CDT
Nautical Twilight 5:19 AM CDT 8:49 PM CDT
Astronomical Twilight 4:43 AM CDT 9:25 PM CDT
Moon 2:52 AM CDT 5:16 PM CDT
Length of Visible Light 14h 23m
Length of Day
13h 27m
Tomorrow will be 2m 19s shorter.
Waning Crescent, 14% of the Moon is Illuminated
Today
Waning Crescent
Aug 25
New
Sep 2
First Quarter
Sep 8
Full
Sep 15
Last Quarter

Today's Extremes

State Highs State Lows

Community

WunderPhotos

Upload Photos

1,745,890 photos uploaded!

WunderBlogs® & News

Nearby

Snow Depth

Station Depth Elevation
No new snow has been reported.

Earthquake Activity

City Distance Mag. Time & Date
No recent earthquake activity has been reported nearby.
Minimum magnitude displayed is 2.5.

Coastal Water Temperatures

Place Temperature
No Stations Reporting

Nearby Weather Stations